createdAt,value
2018-12-13T00:00:01.985Z,42.70
2018-12-13T00:00:35.004Z,42.80
2018-12-13T00:01:08.061Z,42.70
2018-12-13T00:01:40.732Z,42.70
2018-12-13T00:02:13.525Z,42.60
2018-12-13T00:02:46.871Z,42.60
2018-12-13T00:03:19.747Z,42.60
2018-12-13T00:03:52.308Z,42.60
2018-12-13T00:04:25.150Z,42.70
2018-12-13T00:04:57.831Z,42.70
2018-12-13T00:05:30.577Z,42.70
2018-12-13T00:06:03.487Z,42.80
2018-12-13T00:06:36.326Z,42.80
2018-12-13T00:07:09.025Z,42.80
2018-12-13T00:07:42.998Z,42.70
2018-12-13T00:08:15.745Z,42.70
2018-12-13T00:08:48.443Z,42.60
2018-12-13T00:09:21.175Z,42.70
2018-12-13T00:09:53.955Z,42.70
2018-12-13T00:10:26.658Z,42.60
2018-12-13T00:10:59.595Z,42.60
2018-12-13T00:11:32.337Z,42.70
2018-12-13T00:12:04.809Z,42.70
2018-12-13T00:12:37.555Z,42.70
2018-12-13T00:13:10.503Z,42.70
2018-12-13T00:13:43.274Z,42.70
2018-12-13T00:14:16.061Z,42.70
2018-12-13T00:14:48.951Z,42.60
2018-12-13T00:15:22.448Z,42.60
2018-12-13T00:15:55.263Z,42.60
2018-12-13T00:16:28.082Z,42.80
2018-12-13T00:17:01.115Z,42.80
2018-12-13T00:17:34.246Z,42.60
2018-12-13T00:18:07.063Z,42.60
2018-12-13T00:18:40.224Z,42.60
2018-12-13T00:19:14.364Z,42.50
2018-12-13T00:19:47.267Z,42.60
2018-12-13T00:20:19.935Z,42.60
2018-12-13T00:20:52.372Z,43.00
2018-12-13T00:21:25.103Z,42.70
2018-12-13T00:21:57.784Z,42.80
2018-12-13T00:22:30.366Z,42.60
2018-12-13T00:23:02.985Z,42.60
2018-12-13T00:23:35.935Z,42.60
2018-12-13T00:24:09.198Z,42.60
2018-12-13T00:24:41.770Z,42.60
2018-12-13T00:25:14.579Z,42.90
2018-12-13T00:25:46.992Z,42.70
2018-12-13T00:26:19.798Z,42.70
2018-12-13T00:26:52.554Z,42.70
2018-12-13T00:27:25.017Z,42.60
2018-12-13T00:27:57.630Z,42.60
2018-12-13T00:28:30.910Z,42.70
2018-12-13T00:29:04.112Z,42.70
2018-12-13T00:29:37.028Z,42.60
2018-12-13T00:30:10.661Z,42.70
2018-12-13T00:30:43.613Z,42.60
2018-12-13T00:31:16.466Z,42.50
2018-12-13T00:31:49.339Z,42.40
2018-12-13T00:32:22.287Z,42.30
2018-12-13T00:32:55.318Z,42.30
2018-12-13T00:33:27.776Z,42.30
2018-12-13T00:34:37.277Z,42.20
2018-12-13T00:35:10.044Z,42.20
2018-12-13T00:35:42.642Z,42.20
2018-12-13T00:36:15.526Z,42.10
2018-12-13T00:36:48.302Z,42.20
2018-12-13T00:37:21.217Z,42.20
2018-12-13T00:37:54.122Z,42.20
2018-12-13T00:38:27.058Z,42.30
2018-12-13T00:38:59.958Z,42.20
2018-12-13T00:39:32.790Z,42.20
2018-12-13T00:40:05.534Z,42.20
2018-12-13T00:40:38.186Z,42.20
2018-12-13T00:41:10.926Z,42.20
2018-12-13T00:41:43.908Z,42.20
2018-12-13T00:42:16.848Z,42.10
2018-12-13T00:42:49.410Z,42.10
2018-12-13T00:43:22.410Z,42.10
2018-12-13T00:43:55.018Z,42.10
2018-12-13T00:44:28.414Z,42.10
2018-12-13T00:45:01.731Z,42.10
2018-12-13T00:45:34.517Z,42.00
2018-12-13T00:46:07.872Z,42.00
2018-12-13T00:46:40.811Z,42.10
2018-12-13T00:47:13.633Z,42.00
2018-12-13T00:47:46.989Z,42.10
2018-12-13T00:48:19.794Z,42.10
2018-12-13T00:48:53.097Z,42.20
2018-12-13T00:49:26.281Z,42.20
2018-12-13T00:49:59.016Z,42.10
2018-12-13T00:50:31.911Z,42.10
2018-12-13T00:51:05.551Z,42.10
2018-12-13T00:51:38.375Z,42.10
2018-12-13T00:52:11.032Z,42.10
2018-12-13T00:52:43.623Z,42.10
2018-12-13T00:53:16.542Z,42.20
2018-12-13T00:53:49.365Z,42.10
2018-12-13T00:54:22.189Z,42.10
2018-12-13T00:54:55.157Z,42.00
2018-12-13T00:55:27.931Z,42.00
2018-12-13T00:56:00.627Z,42.00
2018-12-13T00:56:33.562Z,42.10
2018-12-13T00:57:06.333Z,42.20
2018-12-13T00:57:39.380Z,42.10
2018-12-13T00:58:12.248Z,42.10
2018-12-13T00:58:45.093Z,42.00
2018-12-13T00:59:18.042Z,42.10
2018-12-13T00:59:50.797Z,42.10
2018-12-13T01:00:23.630Z,42.10
2018-12-13T01:00:56.635Z,42.10
2018-12-13T01:01:29.231Z,42.20
2018-12-13T01:02:02.104Z,42.10
2018-12-13T01:02:34.580Z,42.20
2018-12-13T01:03:07.360Z,42.20
2018-12-13T01:03:40.049Z,42.20
2018-12-13T01:04:12.845Z,42.20
2018-12-13T01:04:45.729Z,42.20
2018-12-13T01:05:18.448Z,42.30
2018-12-13T01:05:51.126Z,42.20
2018-12-13T01:06:23.760Z,42.20
2018-12-13T01:06:56.699Z,42.20
2018-12-13T01:07:29.406Z,42.10
2018-12-13T01:08:02.059Z,42.20
2018-12-13T01:08:34.749Z,42.20
2018-12-13T01:09:07.440Z,42.20
2018-12-13T01:09:40.185Z,42.10
2018-12-13T01:10:13.182Z,42.20
2018-12-13T01:10:45.606Z,42.20
2018-12-13T01:11:18.235Z,42.20
2018-12-13T01:11:51.052Z,42.20
2018-12-13T01:12:23.692Z,42.20
2018-12-13T01:12:56.350Z,42.20
2018-12-13T01:13:29.234Z,42.80
2018-12-13T01:14:02.197Z,42.20
2018-12-13T01:14:34.802Z,42.30
2018-12-13T01:15:07.506Z,42.50
2018-12-13T01:15:40.333Z,42.50
2018-12-13T01:16:13.051Z,42.30
2018-12-13T01:16:45.843Z,42.30
2018-12-13T01:17:18.634Z,42.20
2018-12-13T01:17:51.668Z,42.20
2018-12-13T01:18:24.386Z,42.10
2018-12-13T01:18:57.215Z,42.20
2018-12-13T01:19:30.008Z,42.20
2018-12-13T01:20:02.473Z,42.20
2018-12-13T01:20:35.267Z,42.20
2018-12-13T01:21:08.081Z,42.20
2018-12-13T01:21:40.690Z,42.20
2018-12-13T01:22:13.444Z,42.20
2018-12-13T01:22:47.065Z,42.20
2018-12-13T01:23:19.683Z,42.20
2018-12-13T01:23:52.299Z,42.20
2018-12-13T01:24:25.084Z,42.20
2018-12-13T01:24:57.836Z,42.30
2018-12-13T01:25:30.956Z,42.30
2018-12-13T01:26:03.831Z,42.30
2018-12-13T01:26:36.802Z,42.30
2018-12-13T01:27:09.300Z,42.30
2018-12-13T01:27:42.102Z,42.30
2018-12-13T01:28:15.063Z,42.30
2018-12-13T01:28:48.067Z,42.30
2018-12-13T01:29:20.946Z,42.30
2018-12-13T01:29:53.646Z,42.40
2018-12-13T01:30:26.354Z,42.90
2018-12-13T01:30:59.049Z,42.30
2018-12-13T01:31:32.018Z,42.30
2018-12-13T01:32:04.579Z,42.30
2018-12-13T01:32:37.336Z,42.30
2018-12-13T01:33:10.134Z,42.40
2018-12-13T01:33:42.853Z,42.40
2018-12-13T01:34:15.714Z,42.20
2018-12-13T01:34:48.494Z,42.20
2018-12-13T01:35:21.258Z,42.20
2018-12-13T01:35:53.991Z,43.00
2018-12-13T01:36:27.339Z,42.40
2018-12-13T01:36:59.897Z,42.20
2018-12-13T01:37:32.695Z,42.20
2018-12-13T01:38:05.689Z,42.20
2018-12-13T01:38:38.525Z,42.20
2018-12-13T01:39:11.499Z,42.20
2018-12-13T01:39:44.221Z,42.20
2018-12-13T01:40:17.131Z,42.20
2018-12-13T01:40:49.905Z,42.10
2018-12-13T01:41:22.455Z,42.10
2018-12-13T01:41:55.309Z,42.00
2018-12-13T01:42:28.198Z,42.00
2018-12-13T01:43:00.984Z,41.90
2018-12-13T01:43:33.625Z,41.80
2018-12-13T01:44:06.352Z,41.90
2018-12-13T01:44:39.080Z,42.00
2018-12-13T01:45:11.937Z,42.00
2018-12-13T01:45:44.889Z,42.10
2018-12-13T01:46:17.432Z,42.10
2018-12-13T01:46:50.235Z,42.00
2018-12-13T01:47:23.116Z,41.90
2018-12-13T01:47:55.887Z,42.10
2018-12-13T01:48:28.715Z,42.70
2018-12-13T01:49:02.142Z,42.10
2018-12-13T01:49:35.019Z,42.70
2018-12-13T01:50:07.861Z,42.80
2018-12-13T01:50:40.502Z,43.80
2018-12-13T01:51:13.337Z,42.50
2018-12-13T01:51:45.991Z,43.00
2018-12-13T01:52:18.772Z,42.40
2018-12-13T01:52:51.507Z,42.10
2018-12-13T01:53:24.226Z,41.60
2018-12-13T01:53:56.767Z,41.60
2018-12-13T01:54:29.767Z,41.80
2018-12-13T01:55:02.469Z,42.30
2018-12-13T01:55:36.070Z,41.90
2018-12-13T01:56:08.627Z,41.50
2018-12-13T01:56:41.331Z,41.50
2018-12-13T01:57:14.808Z,42.30
2018-12-13T01:57:47.440Z,43.00
2018-12-13T01:58:20.379Z,41.80
2018-12-13T01:58:53.223Z,41.40
2018-12-13T01:59:26.059Z,41.20
2018-12-13T01:59:58.944Z,41.20
2018-12-13T02:00:31.710Z,42.20
2018-12-13T02:01:04.633Z,41.40
2018-12-13T02:01:37.576Z,41.70
2018-12-13T02:02:10.139Z,42.30
2018-12-13T02:02:42.638Z,41.80
2018-12-13T02:03:15.263Z,41.30
2018-12-13T02:03:48.124Z,41.30
2018-12-13T02:04:20.963Z,41.60
2018-12-13T02:04:53.720Z,41.30
2018-12-13T02:05:26.555Z,41.60
2018-12-13T02:05:59.199Z,41.20
2018-12-13T02:06:31.870Z,41.10
2018-12-13T02:07:05.169Z,41.00
2018-12-13T02:07:37.802Z,41.40
2018-12-13T02:08:10.281Z,41.20
2018-12-13T02:08:42.956Z,41.00
2018-12-13T02:09:15.771Z,41.00
2018-12-13T02:09:47.940Z,40.80
2018-12-13T02:10:20.516Z,40.70
2018-12-13T02:10:52.707Z,40.60
2018-12-13T02:11:24.851Z,40.60
2018-12-13T02:11:57.510Z,40.60
2018-12-13T02:12:29.927Z,40.70
2018-12-13T02:13:02.437Z,40.70
2018-12-13T02:13:36.226Z,40.90
2018-12-13T02:14:08.863Z,40.80
2018-12-13T02:14:41.446Z,40.60
2018-12-13T02:15:14.110Z,40.60
2018-12-13T02:15:46.836Z,40.60
2018-12-13T02:16:19.676Z,40.50
2018-12-13T02:16:52.755Z,40.50
2018-12-13T02:17:25.785Z,40.50
2018-12-13T02:17:58.551Z,40.40
2018-12-13T02:18:31.216Z,40.60
2018-12-13T02:19:03.872Z,40.70
2018-12-13T02:19:36.683Z,40.60
2018-12-13T02:20:09.552Z,40.60
2018-12-13T02:20:42.215Z,40.30
2018-12-13T02:21:14.798Z,40.50
2018-12-13T02:21:47.514Z,40.70
2018-12-13T02:22:19.941Z,40.70
2018-12-13T02:22:53.035Z,40.80
2018-12-13T02:23:25.674Z,40.70
2018-12-13T02:23:58.341Z,40.60
2018-12-13T02:24:31.261Z,40.50
2018-12-13T02:25:03.959Z,40.50
2018-12-13T02:25:37.074Z,40.50
2018-12-13T02:26:09.672Z,40.60
2018-12-13T02:26:42.640Z,40.60
2018-12-13T02:27:15.209Z,40.60
2018-12-13T02:27:47.922Z,40.50
2018-12-13T02:28:21.288Z,43.00
2018-12-13T02:28:54.248Z,41.30
2018-12-13T02:29:26.706Z,42.60
2018-12-13T02:29:59.562Z,40.90
2018-12-13T02:30:32.020Z,40.60
2018-12-13T02:31:04.459Z,40.40
2018-12-13T02:31:37.282Z,40.40
2018-12-13T02:32:10.084Z,40.60
2018-12-13T02:32:42.887Z,40.90
2018-12-13T02:33:15.583Z,40.50
2018-12-13T02:33:48.118Z,40.90
2018-12-13T02:34:20.877Z,40.60
2018-12-13T02:34:53.777Z,40.70
2018-12-13T02:35:26.449Z,40.80
2018-12-13T02:35:59.236Z,41.00
2018-12-13T02:36:31.869Z,41.30
2018-12-13T02:37:06.222Z,41.70
2018-12-13T02:37:39.206Z,41.50
2018-12-13T02:38:11.810Z,41.00
2018-12-13T02:38:44.347Z,40.60
2018-12-13T02:39:16.858Z,41.20
2018-12-13T02:39:49.394Z,40.80
2018-12-13T02:40:22.174Z,41.50
2018-12-13T02:40:54.970Z,40.90
2018-12-13T02:41:27.742Z,40.60
2018-12-13T02:42:00.487Z,41.40
2018-12-13T02:42:33.296Z,42.00
2018-12-13T02:43:06.119Z,41.40
2018-12-13T02:43:38.867Z,41.50
2018-12-13T02:44:11.714Z,40.70
2018-12-13T02:44:44.372Z,40.40
2018-12-13T02:45:17.632Z,40.20
2018-12-13T02:45:50.235Z,40.10
2018-12-13T02:46:22.932Z,40.30
2018-12-13T02:46:56.131Z,41.00
2018-12-13T02:47:29.033Z,41.20
2018-12-13T02:48:01.880Z,40.50
2018-12-13T02:48:34.442Z,40.60
2018-12-13T02:49:07.969Z,41.10
2018-12-13T02:49:40.711Z,40.80
2018-12-13T02:50:13.685Z,42.00
2018-12-13T02:50:46.723Z,41.40
2018-12-13T02:51:19.527Z,41.40
2018-12-13T02:51:52.396Z,40.60
2018-12-13T02:52:25.279Z,40.60
2018-12-13T02:52:57.965Z,40.50
2018-12-13T02:53:31.096Z,40.50
2018-12-13T02:54:03.943Z,40.30
2018-12-13T02:54:36.361Z,40.50
2018-12-13T02:55:09.226Z,40.50
2018-12-13T02:55:42.570Z,40.40
2018-12-13T02:56:15.272Z,40.40
2018-12-13T02:56:47.961Z,40.50
2018-12-13T02:57:20.523Z,40.40
2018-12-13T02:57:53.391Z,40.80
2018-12-13T02:58:26.182Z,41.10
2018-12-13T02:58:58.929Z,40.70
2018-12-13T02:59:31.564Z,40.60
2018-12-13T03:00:04.414Z,42.10
2018-12-13T03:00:37.083Z,41.10
2018-12-13T03:01:09.728Z,40.90
2018-12-13T03:01:42.311Z,40.60
2018-12-13T03:02:15.468Z,41.00
2018-12-13T03:02:48.017Z,40.70
2018-12-13T03:03:20.448Z,40.90
2018-12-13T03:03:53.196Z,43.30
2018-12-13T03:04:27.149Z,42.00
2018-12-13T03:04:59.859Z,41.20
2018-12-13T03:05:32.569Z,40.60
2018-12-13T03:06:05.093Z,40.60
2018-12-13T03:06:37.867Z,41.30
2018-12-13T03:07:13.906Z,40.70
2018-12-13T03:07:45.444Z,41.40
2018-12-13T03:08:18.338Z,41.40
2018-12-13T03:08:51.347Z,40.80
2018-12-13T03:09:23.956Z,41.20
2018-12-13T03:09:56.618Z,40.60
2018-12-13T03:10:29.609Z,42.10
2018-12-13T03:11:02.387Z,42.10
2018-12-13T03:11:35.256Z,41.50
2018-12-13T03:12:08.171Z,41.10
2018-12-13T03:12:40.792Z,40.90
2018-12-13T03:13:13.503Z,41.20
2018-12-13T03:13:46.720Z,41.50
2018-12-13T03:14:19.768Z,40.90
2018-12-13T03:14:52.532Z,40.80
2018-12-13T03:15:25.478Z,40.70
2018-12-13T03:15:58.357Z,40.60
2018-12-13T03:16:31.570Z,40.70
2018-12-13T03:17:04.366Z,40.60
2018-12-13T03:17:37.567Z,40.60
2018-12-13T03:18:10.272Z,40.50
2018-12-13T03:18:43.128Z,40.40
2018-12-13T03:19:16.107Z,40.50
2018-12-13T03:19:49.225Z,40.50
2018-12-13T03:20:22.092Z,40.40
2018-12-13T03:20:54.819Z,40.40
2018-12-13T03:21:28.534Z,40.40
2018-12-13T03:22:01.057Z,40.40
2018-12-13T03:22:33.716Z,40.30
2018-12-13T03:23:06.251Z,40.40
2018-12-13T03:23:38.854Z,40.20
2018-12-13T03:24:11.547Z,40.30
2018-12-13T03:24:44.232Z,40.40
2018-12-13T03:25:16.966Z,40.30
2018-12-13T03:25:49.818Z,41.00
2018-12-13T03:26:22.474Z,40.40
2018-12-13T03:26:55.139Z,40.40
2018-12-13T03:27:27.728Z,40.60
2018-12-13T03:28:00.287Z,40.40
2018-12-13T03:28:32.957Z,40.40
2018-12-13T03:29:05.690Z,40.40
2018-12-13T03:29:38.574Z,40.40
2018-12-13T03:30:11.137Z,40.40
2018-12-13T03:30:43.727Z,40.90
2018-12-13T03:31:16.562Z,41.50
2018-12-13T03:31:49.645Z,41.70
2018-12-13T03:32:22.339Z,41.70
2018-12-13T03:32:55.111Z,41.40
2018-12-13T03:33:27.717Z,42.20
2018-12-13T03:34:01.580Z,41.30
2018-12-13T03:34:34.393Z,41.00
2018-12-13T03:35:07.202Z,41.80
2018-12-13T03:35:39.841Z,41.90
2018-12-13T03:36:12.271Z,41.40
2018-12-13T03:36:45.013Z,41.20
2018-12-13T03:37:20.766Z,40.90
2018-12-13T03:37:53.395Z,40.90
2018-12-13T03:38:26.277Z,41.90
2018-12-13T03:38:58.785Z,41.10
2018-12-13T03:39:31.597Z,41.10
2018-12-13T03:40:04.354Z,42.40
2018-12-13T03:40:37.126Z,40.70
2018-12-13T03:41:09.897Z,41.10
2018-12-13T03:41:42.849Z,40.70
2018-12-13T03:42:15.667Z,40.70
2018-12-13T03:42:48.511Z,41.50
2018-12-13T03:43:21.204Z,41.30
2018-12-13T03:43:53.918Z,41.50
2018-12-13T03:44:26.687Z,40.60
2018-12-13T03:44:59.445Z,40.60
2018-12-13T03:45:32.283Z,41.30
2018-12-13T03:46:04.785Z,40.80
2018-12-13T03:46:37.394Z,40.40
2018-12-13T03:47:09.906Z,41.00
2018-12-13T03:47:42.675Z,41.30
2018-12-13T03:48:15.378Z,40.40
2018-12-13T03:48:48.159Z,40.50
2018-12-13T03:49:20.810Z,40.40
2018-12-13T03:49:53.555Z,40.30
2018-12-13T03:50:26.964Z,41.30
2018-12-13T03:50:59.765Z,41.40
2018-12-13T03:51:32.286Z,40.90
2018-12-13T03:52:05.048Z,41.10
2018-12-13T03:52:37.850Z,40.70
2018-12-13T03:53:10.696Z,40.60
2018-12-13T03:53:43.409Z,40.50
2018-12-13T03:54:16.548Z,40.40
2018-12-13T03:54:49.336Z,41.10
2018-12-13T03:55:21.887Z,40.50
2018-12-13T03:55:54.708Z,41.30
2018-12-13T03:56:27.316Z,40.50
2018-12-13T03:57:00.216Z,40.60
2018-12-13T03:57:33.054Z,40.70
2018-12-13T03:58:06.404Z,41.20
2018-12-13T03:58:39.441Z,41.70
2018-12-13T03:59:12.918Z,41.30
2018-12-13T03:59:45.617Z,41.00
2018-12-13T04:00:18.106Z,41.10
2018-12-13T04:00:51.025Z,41.20
2018-12-13T04:01:23.402Z,41.50
2018-12-13T04:01:56.185Z,41.00
2018-12-13T04:02:30.215Z,41.10
2018-12-13T04:03:02.985Z,40.70
2018-12-13T04:03:35.744Z,41.10
2018-12-13T04:04:08.715Z,40.90
2018-12-13T04:04:41.139Z,40.90
2018-12-13T04:05:13.849Z,40.60
2018-12-13T04:05:46.558Z,41.10
2018-12-13T04:06:19.632Z,41.20
2018-12-13T04:06:52.500Z,40.90
2018-12-13T04:07:27.902Z,40.70
2018-12-13T04:08:00.199Z,40.60
2018-12-13T04:08:33.529Z,41.70
2018-12-13T04:09:06.655Z,41.10
2018-12-13T04:09:39.365Z,40.90
2018-12-13T04:10:12.185Z,41.10
2018-12-13T04:10:44.851Z,40.80
2018-12-13T04:11:17.518Z,40.80
2018-12-13T04:11:50.365Z,40.90
2018-12-13T04:12:22.656Z,41.00
2018-12-13T04:12:55.340Z,41.20
2018-12-13T04:13:28.020Z,40.90
2018-12-13T04:14:00.460Z,41.00
2018-12-13T04:14:33.265Z,40.90
2018-12-13T04:15:05.758Z,41.20
2018-12-13T04:15:38.726Z,40.80
2018-12-13T04:16:11.744Z,40.60
2018-12-13T04:16:44.740Z,40.70
2018-12-13T04:17:17.453Z,40.40
2018-12-13T04:17:50.074Z,40.30
2018-12-13T04:18:22.542Z,40.70
2018-12-13T04:18:55.183Z,40.90
2018-12-13T04:19:28.117Z,40.60
2018-12-13T04:20:00.849Z,40.70
2018-12-13T04:20:33.554Z,41.10
2018-12-13T04:21:06.238Z,41.00
2018-12-13T04:21:38.813Z,41.00
2018-12-13T04:22:11.864Z,40.80
2018-12-13T04:22:44.557Z,40.70
2018-12-13T04:23:17.272Z,40.70
2018-12-13T04:23:50.049Z,40.70
2018-12-13T04:24:22.810Z,41.00
2018-12-13T04:24:55.616Z,40.80
2018-12-13T04:25:28.157Z,41.10
2018-12-13T04:26:00.748Z,41.10
2018-12-13T04:26:33.722Z,40.90
2018-12-13T04:27:06.882Z,41.00
2018-12-13T04:27:39.562Z,41.10
2018-12-13T04:28:12.342Z,40.90
2018-12-13T04:28:45.001Z,40.80
2018-12-13T04:29:17.405Z,40.70
2018-12-13T04:29:50.259Z,40.70
2018-12-13T04:30:22.948Z,40.90
2018-12-13T04:30:55.712Z,40.90
2018-12-13T04:31:28.612Z,40.90
2018-12-13T04:32:01.546Z,41.00
2018-12-13T04:32:34.947Z,40.70
2018-12-13T04:33:07.819Z,40.90
2018-12-13T04:33:40.701Z,40.80
2018-12-13T04:34:13.202Z,40.90
2018-12-13T04:34:46.283Z,40.80
2018-12-13T04:35:19.044Z,40.80
2018-12-13T04:35:52.135Z,40.70
2018-12-13T04:36:24.784Z,40.80
2018-12-13T04:36:57.710Z,40.70
2018-12-13T04:37:35.279Z,40.70
2018-12-13T04:38:06.320Z,40.70
2018-12-13T04:38:39.017Z,40.60
2018-12-13T04:39:11.827Z,40.50
2018-12-13T04:39:44.336Z,40.60
2018-12-13T04:40:17.146Z,40.70
2018-12-13T04:40:49.661Z,40.90
2018-12-13T04:41:22.435Z,41.00
2018-12-13T04:41:54.906Z,41.00
2018-12-13T04:42:27.650Z,40.70
2018-12-13T04:43:00.264Z,40.80
2018-12-13T04:43:33.049Z,40.90
2018-12-13T04:44:05.952Z,41.00
2018-12-13T04:44:38.972Z,41.00
2018-12-13T04:45:11.911Z,40.70
2018-12-13T04:45:44.475Z,40.90
2018-12-13T04:46:17.307Z,40.90
2018-12-13T04:46:50.109Z,40.80
2018-12-13T04:47:22.560Z,41.00
2018-12-13T04:47:55.227Z,40.70
2018-12-13T04:48:27.689Z,40.60
2018-12-13T04:49:00.514Z,40.70
2018-12-13T04:49:33.589Z,40.70
2018-12-13T04:50:07.163Z,40.50
2018-12-13T04:50:40.137Z,40.70
2018-12-13T04:51:12.988Z,41.40
2018-12-13T04:51:45.559Z,40.80
2018-12-13T04:52:18.066Z,40.60
2018-12-13T04:52:51.029Z,40.40
2018-12-13T04:53:24.188Z,40.30
2018-12-13T04:53:56.926Z,40.20
2018-12-13T04:54:29.803Z,40.30
2018-12-13T04:55:02.352Z,40.30
2018-12-13T04:55:35.095Z,40.20
2018-12-13T04:56:07.942Z,40.30
2018-12-13T04:56:41.167Z,40.60
2018-12-13T04:57:14.314Z,40.20
2018-12-13T04:57:47.025Z,40.30
2018-12-13T04:58:19.758Z,40.10
2018-12-13T04:58:52.787Z,40.10
2018-12-13T04:59:25.677Z,40.20
2018-12-13T04:59:58.537Z,40.40
2018-12-13T05:00:31.341Z,40.50
2018-12-13T05:01:03.926Z,40.30
2018-12-13T05:01:36.999Z,40.50
2018-12-13T05:02:10.298Z,40.60
2018-12-13T05:02:42.835Z,40.50
2018-12-13T05:03:15.710Z,40.40
2018-12-13T05:03:49.437Z,40.40
2018-12-13T05:04:22.476Z,40.40
2018-12-13T05:04:55.299Z,40.30
2018-12-13T05:05:28.720Z,40.10
2018-12-13T05:06:01.657Z,40.40
2018-12-13T05:06:34.586Z,40.50
2018-12-13T05:07:07.496Z,40.50
2018-12-13T05:07:41.902Z,40.50
2018-12-13T05:08:15.074Z,40.30
2018-12-13T05:08:47.600Z,40.40
2018-12-13T05:09:20.763Z,40.30
2018-12-13T05:09:53.305Z,40.20
2018-12-13T05:10:26.928Z,40.40
2018-12-13T05:10:59.515Z,40.40
2018-12-13T05:11:32.250Z,40.40
2018-12-13T05:12:05.285Z,40.30
2018-12-13T05:12:38.221Z,40.30
2018-12-13T05:13:10.773Z,40.40
2018-12-13T05:13:43.344Z,40.40
2018-12-13T05:14:15.925Z,40.20
2018-12-13T05:14:48.558Z,40.20
2018-12-13T05:15:21.116Z,40.40
2018-12-13T05:15:54.105Z,40.40
2018-12-13T05:16:27.578Z,40.20
2018-12-13T05:17:00.275Z,40.20
2018-12-13T05:17:33.033Z,40.20
2018-12-13T05:18:05.736Z,40.20
2018-12-13T05:18:38.838Z,40.10
2018-12-13T05:19:11.659Z,40.20
2018-12-13T05:19:44.496Z,40.70
2018-12-13T05:20:17.374Z,40.30
2018-12-13T05:20:50.188Z,40.40
2018-12-13T05:21:22.930Z,40.40
2018-12-13T05:21:55.720Z,40.40
2018-12-13T05:22:28.308Z,40.30
2018-12-13T05:23:00.873Z,40.40
2018-12-13T05:23:33.633Z,40.20
2018-12-13T05:24:06.407Z,40.40
2018-12-13T05:24:39.296Z,40.50
2018-12-13T05:25:11.769Z,40.50
2018-12-13T05:25:44.456Z,40.30
2018-12-13T05:26:17.171Z,40.30
2018-12-13T05:26:49.815Z,40.40
2018-12-13T05:27:22.285Z,40.40
2018-12-13T05:27:54.859Z,40.50
2018-12-13T05:28:28.645Z,40.50
2018-12-13T05:29:01.793Z,40.40
2018-12-13T05:29:34.538Z,40.40
2018-12-13T05:30:07.135Z,40.50
2018-12-13T05:30:39.668Z,40.30
2018-12-13T05:31:12.346Z,40.20
2018-12-13T05:31:44.818Z,41.00
2018-12-13T05:32:17.502Z,40.90
2018-12-13T05:32:50.425Z,40.20
2018-12-13T05:33:23.328Z,40.20
2018-12-13T05:33:56.130Z,40.10
2018-12-13T05:34:29.236Z,40.30
2018-12-13T05:35:02.525Z,40.40
2018-12-13T05:35:35.270Z,40.30
2018-12-13T05:36:07.947Z,40.20
2018-12-13T05:36:40.637Z,40.40
2018-12-13T05:37:13.240Z,40.40
2018-12-13T05:37:48.305Z,40.30
2018-12-13T05:38:20.465Z,40.20
2018-12-13T05:38:53.201Z,40.30
2018-12-13T05:39:26.126Z,40.40
2018-12-13T05:39:59.110Z,40.40
2018-12-13T05:40:31.796Z,40.40
2018-12-13T05:41:04.455Z,40.50
2018-12-13T05:41:37.108Z,40.60
2018-12-13T05:42:09.846Z,40.60
2018-12-13T05:42:43.092Z,40.40
2018-12-13T05:43:15.879Z,40.10
2018-12-13T05:43:48.365Z,40.20
2018-12-13T05:44:20.787Z,40.30
2018-12-13T05:44:53.604Z,40.30
2018-12-13T05:45:26.271Z,40.10
2018-12-13T05:45:58.637Z,40.10
2018-12-13T05:46:31.127Z,40.20
2018-12-13T05:47:04.023Z,40.30
2018-12-13T05:47:36.886Z,40.30
2018-12-13T05:48:09.888Z,40.30
2018-12-13T05:48:42.716Z,40.30
2018-12-13T05:49:15.577Z,40.50
2018-12-13T05:49:47.979Z,40.50
2018-12-13T05:50:20.652Z,40.40
2018-12-13T05:50:53.055Z,40.50
2018-12-13T05:51:25.805Z,40.50
2018-12-13T05:51:58.655Z,40.30
2018-12-13T05:52:31.652Z,40.30
2018-12-13T05:53:04.279Z,40.10
2018-12-13T05:53:37.086Z,40.10
2018-12-13T05:54:10.107Z,40.80
2018-12-13T05:54:42.888Z,40.10
2018-12-13T05:55:16.039Z,40.10
2018-12-13T05:55:48.711Z,40.30
2018-12-13T05:56:21.508Z,40.20
2018-12-13T05:56:54.066Z,40.10
2018-12-13T05:57:26.973Z,40.10
2018-12-13T05:57:59.949Z,40.00
2018-12-13T05:58:32.686Z,40.10
2018-12-13T05:59:05.717Z,40.30
2018-12-13T05:59:38.235Z,40.40
2018-12-13T06:00:11.117Z,40.30
2018-12-13T06:00:43.885Z,40.50
2018-12-13T06:01:16.616Z,40.10
2018-12-13T06:01:49.457Z,40.00
2018-12-13T06:02:22.186Z,40.20
2018-12-13T06:02:55.245Z,40.20
2018-12-13T06:03:27.985Z,40.10
2018-12-13T06:04:01.231Z,40.20
2018-12-13T06:04:33.736Z,40.20
2018-12-13T06:05:06.331Z,40.30
2018-12-13T06:05:38.807Z,40.40
2018-12-13T06:06:11.297Z,40.10
2018-12-13T06:06:43.726Z,39.90
2018-12-13T06:07:16.620Z,40.00
2018-12-13T06:07:54.697Z,40.10
2018-12-13T06:08:24.616Z,40.30
2018-12-13T06:08:57.649Z,40.30
2018-12-13T06:09:30.630Z,40.00
2018-12-13T06:10:03.425Z,39.90
2018-12-13T06:10:36.286Z,40.00
2018-12-13T06:11:09.077Z,40.20
2018-12-13T06:11:41.726Z,40.40
2018-12-13T06:12:14.127Z,40.30
2018-12-13T06:12:46.698Z,40.30
2018-12-13T06:13:19.398Z,40.20
2018-12-13T06:13:51.910Z,40.10
2018-12-13T06:14:24.759Z,40.00
2018-12-13T06:14:57.395Z,40.00
2018-12-13T06:15:30.115Z,40.50
2018-12-13T06:16:02.994Z,40.00
2018-12-13T06:16:35.876Z,40.10
2018-12-13T06:17:08.618Z,40.30
2018-12-13T06:17:41.212Z,40.10
2018-12-13T06:18:13.827Z,40.10
2018-12-13T06:18:46.636Z,40.20
2018-12-13T06:19:19.469Z,40.50
2018-12-13T06:19:52.258Z,40.50
2018-12-13T06:20:24.984Z,40.50
2018-12-13T06:20:57.685Z,40.40
2018-12-13T06:21:36.680Z,40.30
2018-12-13T06:22:05.991Z,40.20
2018-12-13T06:22:38.811Z,40.00
2018-12-13T06:23:11.693Z,40.00
2018-12-13T06:23:44.094Z,40.10
2018-12-13T06:24:16.949Z,40.00
2018-12-13T06:24:49.756Z,40.00
2018-12-13T06:25:22.767Z,40.10
2018-12-13T06:25:55.897Z,40.20
2018-12-13T06:26:28.893Z,40.00
2018-12-13T06:27:01.589Z,39.80
2018-12-13T06:27:34.280Z,40.00
2018-12-13T06:28:07.018Z,40.10
2018-12-13T06:28:39.693Z,40.10
2018-12-13T06:29:12.678Z,40.00
2018-12-13T06:29:48.833Z,40.00
2018-12-13T06:30:20.630Z,39.90
2018-12-13T06:30:53.201Z,39.80
2018-12-13T06:31:25.861Z,39.80
2018-12-13T06:31:58.522Z,39.70
2018-12-13T06:32:31.388Z,40.00
2018-12-13T06:33:04.237Z,40.20
2018-12-13T06:33:37.254Z,40.00
2018-12-13T06:34:09.965Z,40.40
2018-12-13T06:34:43.211Z,40.00
2018-12-13T06:35:15.798Z,40.00
2018-12-13T06:35:48.477Z,40.00
2018-12-13T06:36:21.594Z,40.10
2018-12-13T06:36:54.290Z,40.30
2018-12-13T06:37:26.879Z,40.30
2018-12-13T06:38:01.432Z,40.20
2018-12-13T06:38:34.588Z,40.20
2018-12-13T06:39:07.694Z,40.10
2018-12-13T06:39:40.311Z,40.30
2018-12-13T06:40:15.683Z,40.10
2018-12-13T06:40:47.934Z,39.90
2018-12-13T06:41:20.576Z,40.00
2018-12-13T06:41:53.383Z,40.00
2018-12-13T06:42:25.934Z,39.80
2018-12-13T06:42:58.939Z,39.70
2018-12-13T06:43:31.866Z,39.80
2018-12-13T06:44:04.695Z,39.80
2018-12-13T06:44:37.484Z,40.00
2018-12-13T06:45:10.077Z,40.10
2018-12-13T06:45:42.894Z,40.20
2018-12-13T06:46:15.553Z,40.30
2018-12-13T06:46:48.413Z,40.00
2018-12-13T06:47:21.081Z,40.00
2018-12-13T06:47:53.860Z,40.10
2018-12-13T06:48:26.466Z,40.00
2018-12-13T06:48:58.959Z,39.80
2018-12-13T06:49:31.895Z,40.30
2018-12-13T06:50:04.441Z,40.00
2018-12-13T06:50:37.258Z,40.10
2018-12-13T06:51:10.211Z,39.80
2018-12-13T06:51:43.152Z,40.00
2018-12-13T06:52:15.803Z,40.20
2018-12-13T06:52:48.568Z,40.20
2018-12-13T06:53:21.132Z,40.10
2018-12-13T06:53:54.099Z,40.30
2018-12-13T06:54:27.003Z,40.20
2018-12-13T06:54:59.755Z,40.00
2018-12-13T06:55:32.474Z,40.00
2018-12-13T06:56:05.483Z,40.10
2018-12-13T06:56:38.296Z,40.20
2018-12-13T06:57:11.047Z,40.20
2018-12-13T06:57:43.931Z,40.30
2018-12-13T06:58:16.593Z,40.10
2018-12-13T06:58:49.367Z,40.00
2018-12-13T06:59:22.254Z,40.10
2018-12-13T06:59:54.671Z,40.10
2018-12-13T07:00:27.364Z,39.90
2018-12-13T07:01:00.430Z,39.80
2018-12-13T07:01:33.199Z,39.70
2018-12-13T07:02:06.542Z,40.00
2018-12-13T07:02:39.400Z,40.10
2018-12-13T07:03:12.437Z,40.20